createdAt,value
2018-06-25T00:01:28.504Z,10.50
2018-06-25T00:03:56.925Z,10.50
2018-06-25T00:06:25.613Z,10.50
2018-06-25T00:08:54.095Z,10.50
2018-06-25T00:11:22.679Z,10.50
2018-06-25T00:13:51.341Z,10.50
2018-06-25T00:16:19.851Z,10.50
2018-06-25T00:18:48.481Z,10.50
2018-06-25T00:21:16.965Z,10.50
2018-06-25T00:23:45.505Z,10.50
2018-06-25T00:26:14.059Z,10.50
2018-06-25T00:28:42.631Z,10.60
2018-06-25T00:31:11.167Z,10.60
2018-06-25T00:33:39.613Z,10.60
2018-06-25T00:36:08.016Z,10.50
2018-06-25T00:38:36.929Z,10.60
2018-06-25T00:41:05.393Z,10.60
2018-06-25T00:43:33.912Z,10.60
2018-06-25T00:46:02.432Z,10.60
2018-06-25T00:48:30.930Z,10.60
2018-06-25T00:50:59.416Z,10.60
2018-06-25T00:53:28.014Z,10.60
2018-06-25T00:55:56.602Z,10.60
2018-06-25T00:58:25.103Z,10.60
2018-06-25T01:03:21.206Z,10.60
2018-06-25T01:05:49.830Z,10.60
2018-06-25T01:10:46.580Z,10.70
2018-06-25T01:13:15.025Z,10.70
2018-06-25T01:15:43.591Z,10.70
2018-06-25T01:18:12.238Z,10.70
2018-06-25T01:20:40.756Z,10.70
2018-06-25T01:23:09.494Z,10.70
2018-06-25T01:25:38.023Z,10.70
2018-06-25T01:28:06.607Z,10.70
2018-06-25T01:30:35.309Z,10.70
2018-06-25T01:33:04.105Z,10.70
2018-06-25T01:35:32.686Z,10.70
2018-06-25T01:38:01.270Z,10.70
2018-06-25T01:40:29.918Z,10.70
2018-06-25T01:42:58.615Z,10.70
2018-06-25T01:45:27.186Z,10.80
2018-06-25T01:47:55.639Z,10.80
2018-06-25T01:50:24.109Z,10.80
2018-06-25T01:52:52.877Z,10.80
2018-06-25T01:55:21.473Z,10.80
2018-06-25T01:57:50.065Z,10.80
2018-06-25T02:00:18.799Z,10.80
2018-06-25T02:02:47.466Z,10.80
2018-06-25T02:05:16.479Z,10.90
2018-06-25T02:07:45.436Z,10.80
2018-06-25T02:10:14.205Z,10.80
2018-06-25T02:12:42.847Z,10.80
2018-06-25T02:15:11.537Z,10.90
2018-06-25T02:17:40.574Z,10.90
2018-06-25T02:20:09.734Z,10.90
2018-06-25T02:25:07.543Z,10.90
2018-06-25T02:27:36.933Z,10.90
2018-06-25T02:30:05.571Z,10.90
2018-06-25T02:32:34.793Z,10.90
2018-06-25T02:35:03.379Z,10.90
2018-06-25T02:37:32.089Z,10.90
2018-06-25T02:40:00.989Z,10.90
2018-06-25T02:42:29.628Z,10.90
2018-06-25T02:44:58.420Z,10.90
2018-06-25T02:47:27.110Z,10.90
2018-06-25T02:49:55.890Z,10.90
2018-06-25T02:52:24.708Z,10.90
2018-06-25T02:54:53.462Z,10.90
2018-06-25T02:57:22.559Z,10.90
2018-06-25T02:59:51.823Z,10.90
2018-06-25T03:02:20.789Z,10.90
2018-06-25T03:04:49.626Z,10.90
2018-06-25T03:07:18.746Z,10.90
2018-06-25T03:09:47.789Z,10.90
2018-06-25T03:12:16.872Z,10.90
2018-06-25T03:17:14.954Z,10.90
2018-06-25T03:19:43.958Z,10.90
2018-06-25T03:22:13.044Z,11.00
2018-06-25T03:24:42.329Z,11.00
2018-06-25T03:27:11.542Z,11.00
2018-06-25T03:29:40.602Z,11.00
2018-06-25T03:32:09.826Z,11.00
2018-06-25T03:34:38.829Z,11.10
2018-06-25T03:39:36.312Z,11.10
2018-06-25T03:42:05.083Z,11.10
2018-06-25T03:44:33.891Z,11.10
2018-06-25T03:47:02.555Z,11.10
2018-06-25T03:49:31.071Z,11.10
2018-06-25T03:51:59.582Z,11.10
2018-06-25T03:54:28.103Z,11.10
2018-06-25T03:56:56.804Z,11.10
2018-06-25T03:59:25.655Z,11.10
2018-06-25T04:01:54.217Z,11.10
2018-06-25T04:04:22.800Z,11.10
2018-06-25T04:09:20.064Z,11.20
2018-06-25T04:14:17.269Z,11.20
2018-06-25T04:16:45.746Z,11.20
2018-06-25T04:19:14.391Z,11.20
2018-06-25T04:21:42.869Z,11.20
2018-06-25T04:24:11.588Z,11.20
2018-06-25T04:26:40.068Z,11.20
2018-06-25T04:29:08.690Z,11.20
2018-06-25T04:31:37.305Z,11.20
2018-06-25T04:34:05.997Z,11.30
2018-06-25T04:36:34.796Z,11.30
2018-06-25T04:39:06.031Z,11.30
2018-06-25T04:41:34.989Z,11.30
2018-06-25T04:44:03.661Z,11.30
2018-06-25T04:46:32.257Z,11.30
2018-06-25T04:49:00.854Z,11.40
2018-06-25T04:51:29.590Z,11.40
2018-06-25T04:56:26.605Z,11.50
2018-06-25T04:58:55.461Z,11.60
2018-06-25T05:01:24.103Z,11.70
2018-06-25T05:03:52.866Z,11.80
2018-06-25T05:06:21.492Z,11.80
2018-06-25T05:08:50.442Z,11.80
2018-06-25T05:11:18.938Z,11.90
2018-06-25T05:13:47.613Z,12.00
2018-06-25T05:16:16.112Z,12.00
2018-06-25T05:18:44.835Z,12.10
2018-06-25T05:21:13.431Z,12.10
2018-06-25T05:26:11.075Z,12.20
2018-06-25T05:28:39.868Z,12.20
2018-06-25T05:31:09.431Z,12.30
2018-06-25T05:33:38.484Z,12.30
2018-06-25T05:36:07.274Z,12.40
2018-06-25T05:38:35.889Z,12.60
2018-06-25T05:41:04.902Z,12.80
2018-06-25T05:43:33.517Z,13.00
2018-06-25T05:46:02.175Z,13.20
2018-06-25T05:48:30.972Z,13.30
2018-06-25T05:51:01.160Z,13.30
2018-06-25T05:53:29.660Z,13.30
2018-06-25T05:55:58.568Z,13.40
2018-06-25T05:58:27.258Z,13.40
2018-06-25T06:00:56.416Z,13.40
2018-06-25T06:03:25.245Z,13.30
2018-06-25T06:05:53.885Z,13.30
2018-06-25T06:08:22.604Z,13.20
2018-06-25T06:10:51.107Z,13.10
2018-06-25T06:13:19.644Z,13.10
2018-06-25T06:15:48.168Z,13.00
2018-06-25T06:18:16.706Z,13.00
2018-06-25T06:20:45.230Z,13.00
2018-06-25T06:23:13.870Z,13.10
2018-06-25T06:25:43.294Z,13.20
2018-06-25T06:28:11.854Z,13.40
2018-06-25T06:30:40.546Z,13.70
2018-06-25T06:33:09.295Z,13.80
2018-06-25T06:35:37.889Z,13.90
2018-06-25T06:38:06.641Z,13.90
2018-06-25T06:40:35.186Z,14.00
2018-06-25T06:43:04.724Z,13.90
2018-06-25T06:45:33.552Z,13.90
2018-06-25T06:48:02.836Z,13.80
2018-06-25T06:50:32.752Z,13.70
2018-06-25T06:53:01.556Z,13.60
2018-06-25T06:55:30.512Z,13.50
2018-06-25T06:57:59.232Z,13.30
2018-06-25T07:00:27.998Z,13.20
2018-06-25T07:02:56.770Z,13.10
2018-06-25T07:05:25.522Z,13.00
2018-06-25T07:07:54.262Z,12.90
2018-06-25T07:12:51.520Z,12.70
2018-06-25T07:17:48.325Z,12.60
2018-06-25T07:20:17.231Z,12.60
2018-06-25T07:22:46.040Z,12.60
2018-06-25T07:25:14.711Z,12.60
2018-06-25T07:27:43.400Z,12.70
2018-06-25T07:30:12.163Z,12.70
2018-06-25T07:32:41.828Z,12.70
2018-06-25T07:35:10.774Z,12.70
2018-06-25T07:37:39.627Z,12.70
2018-06-25T07:40:09.206Z,12.80
2018-06-25T07:42:37.785Z,12.80
2018-06-25T07:45:06.468Z,12.80
2018-06-25T07:47:35.654Z,12.90
2018-06-25T07:50:04.338Z,13.00
2018-06-25T07:52:33.234Z,13.00
2018-06-25T07:55:02.214Z,13.10
2018-06-25T07:57:30.996Z,13.20
2018-06-25T07:59:59.729Z,13.30
2018-06-25T08:02:28.887Z,13.30
2018-06-25T08:04:57.641Z,13.40
2018-06-25T08:09:54.365Z,13.60
2018-06-25T08:12:23.190Z,13.60
2018-06-25T08:14:52.301Z,13.70
2018-06-25T08:17:20.986Z,13.70
2018-06-25T08:19:49.594Z,13.80
2018-06-25T08:22:18.792Z,13.90
2018-06-25T08:24:48.436Z,13.90
2018-06-25T08:27:17.416Z,14.00
2018-06-25T08:29:46.239Z,14.00
2018-06-25T08:32:14.984Z,14.00
2018-06-25T08:34:44.061Z,14.00
2018-06-25T08:37:12.903Z,14.00
2018-06-25T08:39:41.940Z,14.00
2018-06-25T08:42:10.544Z,14.00
2018-06-25T08:44:39.431Z,13.90
2018-06-25T08:47:08.227Z,13.80
2018-06-25T08:49:37.017Z,13.80
2018-06-25T08:52:05.828Z,13.80
2018-06-25T08:54:34.679Z,14.00
2018-06-25T08:57:03.441Z,14.10
2018-06-25T08:59:32.140Z,14.10
2018-06-25T09:04:29.570Z,14.30
2018-06-25T09:06:58.251Z,14.50
2018-06-25T09:09:26.992Z,14.60
2018-06-25T09:11:56.339Z,14.80
2018-06-25T09:14:25.216Z,14.80
2018-06-25T09:16:53.795Z,14.90
2018-06-25T09:19:22.509Z,14.90
2018-06-25T09:21:51.629Z,15.00
2018-06-25T09:24:20.261Z,15.00
2018-06-25T09:26:48.863Z,15.10
2018-06-25T09:29:17.509Z,15.20
2018-06-25T09:31:46.366Z,15.20
2018-06-25T09:34:21.623Z,15.20
2018-06-25T09:36:50.544Z,15.30
2018-06-25T09:39:19.471Z,15.20
2018-06-25T09:41:48.727Z,15.10
2018-06-25T09:44:17.435Z,15.10
2018-06-25T09:46:46.061Z,15.10
2018-06-25T09:49:14.924Z,15.10
2018-06-25T09:51:43.761Z,15.10
2018-06-25T09:54:12.801Z,15.20
2018-06-25T09:56:41.549Z,15.30
2018-06-25T09:59:10.065Z,15.40
2018-06-25T10:01:38.880Z,15.60
2018-06-25T10:04:07.495Z,15.80
2018-06-25T10:06:36.102Z,16.00
2018-06-25T10:09:08.914Z,16.10
2018-06-25T10:11:37.734Z,16.20
2018-06-25T10:14:06.978Z,16.20
2018-06-25T10:16:36.194Z,16.30
2018-06-25T10:21:34.200Z,16.20
2018-06-25T10:24:03.103Z,16.10
2018-06-25T10:26:31.832Z,15.90
2018-06-25T10:29:00.443Z,15.70
2018-06-25T10:31:29.167Z,15.40
2018-06-25T10:33:58.442Z,15.30
2018-06-25T10:36:33.240Z,15.20
2018-06-25T10:39:02.106Z,15.00
2018-06-25T10:41:31.173Z,14.90
2018-06-25T10:43:59.753Z,14.80
2018-06-25T10:46:28.835Z,14.70
2018-06-25T10:48:57.538Z,14.70
2018-06-25T10:51:26.730Z,14.60
2018-06-25T10:53:55.781Z,14.60
2018-06-25T10:56:25.391Z,14.70
2018-06-25T10:58:54.218Z,14.70
2018-06-25T11:01:23.392Z,14.80
2018-06-25T11:03:52.169Z,15.00
2018-06-25T11:06:22.574Z,15.10
2018-06-25T11:08:51.336Z,15.30
2018-06-25T11:11:20.218Z,15.60
2018-06-25T11:13:48.832Z,15.80
2018-06-25T11:16:17.534Z,16.10
2018-06-25T11:18:46.404Z,16.20
2018-06-25T11:21:15.418Z,16.50
2018-06-25T11:23:43.904Z,16.70
2018-06-25T11:26:13.133Z,17.00
2018-06-25T11:28:42.064Z,17.30
2018-06-25T11:33:39.118Z,17.80
2018-06-25T11:38:36.024Z,18.00
2018-06-25T11:41:04.530Z,18.00
2018-06-25T11:43:33.161Z,18.10
2018-06-25T11:46:02.042Z,18.30
2018-06-25T11:50:59.075Z,18.10
2018-06-25T11:53:27.844Z,17.80
2018-06-25T11:55:56.693Z,17.60
2018-06-25T11:58:25.526Z,17.50
2018-06-25T12:00:54.046Z,17.50
2018-06-25T12:03:22.970Z,17.60
2018-06-25T12:05:51.902Z,17.90
2018-06-25T12:08:19.918Z,18.00
2018-06-25T12:10:48.573Z,18.30
2018-06-25T12:13:17.087Z,18.80
2018-06-25T12:15:46.209Z,19.20
2018-06-25T12:18:14.885Z,19.50
2018-06-25T12:25:40.302Z,20.30
2018-06-25T12:28:09.165Z,20.70
2018-06-25T12:30:37.937Z,21.00
2018-06-25T12:33:06.917Z,20.90
2018-06-25T12:35:35.889Z,20.90
2018-06-25T12:40:32.658Z,20.50
2018-06-25T12:43:01.369Z,20.20
2018-06-25T12:45:30.060Z,20.10
2018-06-25T12:47:58.717Z,19.90
2018-06-25T12:50:27.407Z,19.80
2018-06-25T12:52:56.598Z,20.00
2018-06-25T12:55:25.208Z,20.20
2018-06-25T12:57:54.131Z,20.60
2018-06-25T13:00:23.529Z,20.80
2018-06-25T13:02:52.398Z,21.00
2018-06-25T13:05:21.105Z,21.20
2018-06-25T13:07:49.953Z,21.40
2018-06-25T13:12:48.529Z,21.40
2018-06-25T13:15:17.340Z,21.10
2018-06-25T13:17:46.024Z,20.70
2018-06-25T13:22:43.709Z,20.40
2018-06-25T13:27:40.927Z,20.50
2018-06-25T13:30:09.549Z,20.90
2018-06-25T13:32:37.920Z,21.20
2018-06-25T13:35:06.585Z,21.40
2018-06-25T13:37:35.490Z,21.50
2018-06-25T13:40:04.391Z,21.60
2018-06-25T13:42:33.162Z,21.70
2018-06-25T13:45:01.747Z,21.20
2018-06-25T13:47:30.211Z,21.10
2018-06-25T13:49:58.840Z,21.20
2018-06-25T13:52:27.549Z,21.50
2018-06-25T13:54:56.327Z,21.70
2018-06-25T13:57:24.575Z,21.70
2018-06-25T13:59:53.098Z,21.70
2018-06-25T14:04:50.439Z,21.80
2018-06-25T14:07:19.153Z,22.00
2018-06-25T14:09:47.339Z,22.10
2018-06-25T14:14:43.214Z,21.80
2018-06-25T14:17:11.457Z,21.50
2018-06-25T14:19:40.301Z,21.00
2018-06-25T14:22:08.695Z,20.60
2018-06-25T14:24:41.824Z,20.60
2018-06-25T14:27:10.251Z,20.60
2018-06-25T14:29:38.072Z,20.70
2018-06-25T14:34:49.074Z,20.90
2018-06-25T14:37:16.768Z,21.00
2018-06-25T14:39:45.630Z,21.10
2018-06-25T14:42:14.296Z,21.30
2018-06-25T14:44:42.959Z,21.30
2018-06-25T14:47:11.543Z,21.00
2018-06-25T14:49:39.681Z,20.90
2018-06-25T14:52:07.717Z,20.90
2018-06-25T14:54:35.510Z,20.70
2018-06-25T14:57:04.558Z,20.70
2018-06-25T14:59:32.448Z,20.70
2018-06-25T15:02:01.727Z,20.70
2018-06-25T15:04:30.482Z,20.80
2018-06-25T15:06:59.223Z,20.80
2018-06-25T15:09:27.728Z,20.90
2018-06-25T15:11:56.232Z,21.10
2018-06-25T15:14:24.524Z,21.10
2018-06-25T15:16:53.666Z,21.30
2018-06-25T15:19:22.566Z,21.30
2018-06-25T15:24:19.984Z,21.30
2018-06-25T15:26:48.569Z,21.10
2018-06-25T15:29:17.085Z,20.80
2018-06-25T15:31:45.040Z,20.50
2018-06-25T15:34:12.911Z,20.30
2018-06-25T15:36:40.774Z,20.10
2018-06-25T15:39:10.626Z,20.00
2018-06-25T15:41:39.703Z,19.90
2018-06-25T15:44:08.502Z,19.80
2018-06-25T15:46:37.058Z,19.70
2018-06-25T15:49:05.571Z,19.60
2018-06-25T15:51:34.059Z,19.50
2018-06-25T15:54:02.800Z,19.30
2018-06-25T15:56:31.886Z,19.20
2018-06-25T15:59:00.592Z,19.20
2018-06-25T16:01:29.223Z,19.10
2018-06-25T16:03:57.909Z,19.10
2018-06-25T16:06:26.638Z,19.10
2018-06-25T16:08:55.316Z,19.10
2018-06-25T16:11:24.287Z,19.20
2018-06-25T16:13:52.851Z,19.20
2018-06-25T16:16:21.622Z,19.20
2018-06-25T16:18:50.998Z,19.20
2018-06-25T16:21:19.780Z,19.10
2018-06-25T16:23:48.438Z,19.00
2018-06-25T16:28:45.575Z,18.70
2018-06-25T16:31:14.407Z,18.60
2018-06-25T16:36:11.547Z,18.50
2018-06-25T16:38:40.157Z,18.50
2018-06-25T16:43:37.700Z,18.50
2018-06-25T16:46:06.474Z,18.50
2018-06-25T16:48:35.318Z,18.40
2018-06-25T16:51:04.577Z,18.30
2018-06-25T16:53:34.729Z,18.30
2018-06-25T16:56:03.318Z,18.20
2018-06-25T17:01:01.924Z,18.10
2018-06-25T17:03:31.437Z,18.10
2018-06-25T17:08:29.406Z,18.00
2018-06-25T17:10:58.628Z,17.90
2018-06-25T17:13:27.270Z,17.80
2018-06-25T17:15:56.004Z,17.80
2018-06-25T17:18:24.732Z,17.70
2018-06-25T17:20:53.491Z,17.70
2018-06-25T17:23:23.261Z,17.60
2018-06-25T17:25:51.975Z,17.50
2018-06-25T17:30:48.732Z,17.60
2018-06-25T17:33:17.382Z,17.60
2018-06-25T17:35:46.520Z,17.60
2018-06-25T17:38:15.358Z,17.60
2018-06-25T17:40:44.127Z,17.60
2018-06-25T17:43:12.901Z,17.70
2018-06-25T17:45:41.526Z,17.70
2018-06-25T17:48:10.401Z,17.60
2018-06-25T17:50:39.442Z,17.60
2018-06-25T17:53:08.301Z,17.50
2018-06-25T17:55:37.084Z,17.50
2018-06-25T17:58:07.316Z,17.40
2018-06-25T18:00:37.578Z,17.40
2018-06-25T18:03:06.524Z,17.30
2018-06-25T18:05:35.617Z,17.20
2018-06-25T18:08:05.632Z,17.20
2018-06-25T18:10:36.741Z,17.10
2018-06-25T18:15:33.838Z,16.90
2018-06-25T18:18:02.640Z,16.80
2018-06-25T18:20:31.622Z,16.70
2018-06-25T18:23:01.031Z,16.60
2018-06-25T18:25:29.948Z,16.50
2018-06-25T18:27:58.678Z,16.40
2018-06-25T18:32:55.772Z,16.10
2018-06-25T18:35:24.998Z,16.00
2018-06-25T18:37:54.564Z,15.90
2018-06-25T18:42:51.988Z,15.70
2018-06-25T18:45:21.166Z,15.60
2018-06-25T18:47:49.888Z,15.50
2018-06-25T18:50:18.649Z,15.30
2018-06-25T18:52:47.315Z,15.20
2018-06-25T18:55:16.763Z,15.10
2018-06-25T18:57:45.554Z,15.00
2018-06-25T19:00:14.170Z,14.90
2018-06-25T19:02:42.664Z,14.70
2018-06-25T19:05:11.773Z,14.60
2018-06-25T19:07:40.416Z,14.50
2018-06-25T19:10:09.320Z,14.40
2018-06-25T19:12:38.275Z,14.30
2018-06-25T19:15:07.448Z,14.20
2018-06-25T19:17:36.125Z,14.10
2018-06-25T19:20:05.583Z,14.00
2018-06-25T19:22:34.211Z,13.90
2018-06-25T19:25:02.866Z,13.80
2018-06-25T19:27:32.894Z,13.80
2018-06-25T19:30:02.595Z,13.70
2018-06-25T19:32:31.562Z,13.70
2018-06-25T19:35:00.537Z,13.60
2018-06-25T19:37:29.534Z,13.50
2018-06-25T19:39:59.308Z,13.40
2018-06-25T19:42:28.251Z,13.30
2018-06-25T19:44:58.028Z,13.30
2018-06-25T19:47:27.696Z,13.20
2018-06-25T19:49:56.419Z,13.10
2018-06-25T19:52:30.294Z,13.00
2018-06-25T19:54:58.936Z,12.90
2018-06-25T19:57:28.508Z,12.80
2018-06-25T19:59:57.124Z,12.80
2018-06-25T20:02:25.720Z,12.70
2018-06-25T20:04:54.015Z,12.60
2018-06-25T20:07:22.681Z,12.60
2018-06-25T20:09:50.663Z,12.60
2018-06-25T20:12:18.584Z,12.50
2018-06-25T20:14:46.476Z,12.50
2018-06-25T20:17:15.009Z,12.50
2018-06-25T20:19:43.711Z,12.60
2018-06-25T20:22:12.776Z,12.60
2018-06-25T20:24:40.637Z,12.60
2018-06-25T20:27:09.258Z,12.60
2018-06-25T20:29:37.078Z,12.60
2018-06-25T20:32:06.792Z,12.60
2018-06-25T20:34:34.714Z,12.70
2018-06-25T20:37:02.460Z,12.70
2018-06-25T20:39:30.263Z,12.70
2018-06-25T20:41:58.078Z,12.60
2018-06-25T20:44:25.935Z,12.60
2018-06-25T20:46:53.793Z,12.60
2018-06-25T20:49:22.164Z,12.50
2018-06-25T20:51:50.729Z,12.50
2018-06-25T20:54:18.609Z,12.50
2018-06-25T20:56:46.511Z,12.50
2018-06-25T20:59:14.404Z,12.40
2018-06-25T21:01:42.254Z,12.40
2018-06-25T21:04:10.024Z,12.30
2018-06-25T21:06:37.844Z,12.30
2018-06-25T21:11:33.279Z,12.20
2018-06-25T21:14:01.078Z,12.20
2018-06-25T21:16:28.857Z,12.10
2018-06-25T21:18:57.488Z,12.10
2018-06-25T21:21:25.354Z,12.10
2018-06-25T21:23:53.426Z,12.10
2018-06-25T21:26:21.415Z,12.10
2018-06-25T21:28:49.131Z,12.10
2018-06-25T21:31:17.052Z,12.00
2018-06-25T21:33:44.860Z,12.00
2018-06-25T21:36:12.668Z,12.00
2018-06-25T21:41:08.085Z,12.00
2018-06-25T21:43:35.954Z,12.00
2018-06-25T21:46:03.724Z,12.00
2018-06-25T21:48:31.465Z,11.90
2018-06-25T21:50:59.270Z,11.90
2018-06-25T21:53:27.025Z,11.90
2018-06-25T21:55:54.808Z,11.90
2018-06-25T22:00:51.582Z,11.90
2018-06-25T22:03:19.620Z,11.80
2018-06-25T22:05:48.275Z,11.80
2018-06-25T22:08:16.278Z,11.80
2018-06-25T22:10:44.082Z,11.80
2018-06-25T22:13:11.932Z,11.80
2018-06-25T22:15:39.906Z,11.70
2018-06-25T22:18:08.408Z,11.70
2018-06-25T22:20:36.479Z,11.70
2018-06-25T22:23:04.328Z,11.80
2018-06-25T22:25:32.145Z,11.80
2018-06-25T22:27:59.942Z,11.80
2018-06-25T22:30:27.866Z,11.80
2018-06-25T22:32:55.843Z,11.90
2018-06-25T22:35:24.168Z,11.90
2018-06-25T22:37:52.471Z,11.90
2018-06-25T22:42:48.697Z,12.00
2018-06-25T22:45:16.907Z,12.00
2018-06-25T22:47:44.732Z,12.10
2018-06-25T22:50:12.793Z,12.10
2018-06-25T22:52:40.680Z,12.20
2018-06-25T22:55:08.636Z,12.20
2018-06-25T22:57:36.610Z,12.20
2018-06-25T23:00:04.836Z,12.20
2018-06-25T23:02:32.800Z,12.30
2018-06-25T23:05:00.694Z,12.30
2018-06-25T23:07:28.466Z,12.30
2018-06-25T23:09:56.283Z,12.40
2018-06-25T23:14:51.651Z,12.40
2018-06-25T23:17:19.483Z,12.40
2018-06-25T23:19:47.254Z,12.50
2018-06-25T23:22:15.247Z,12.50
2018-06-25T23:24:43.038Z,12.50
2018-06-25T23:27:10.956Z,12.60
2018-06-25T23:29:38.796Z,12.60
2018-06-25T23:32:06.594Z,12.60
2018-06-25T23:34:35.352Z,12.60
2018-06-25T23:37:03.172Z,12.60
2018-06-25T23:39:31.101Z,12.60
2018-06-25T23:41:59.334Z,12.60
2018-06-25T23:44:27.095Z,12.60
2018-06-25T23:46:54.939Z,12.60
2018-06-25T23:49:23.588Z,12.60
2018-06-25T23:51:52.212Z,12.60
2018-06-25T23:54:20.132Z,12.50
2018-06-25T23:56:47.912Z,12.50
2018-06-25T23:59:16.622Z,12.50
